Time;durP1;ratioP1;P1;durP2;ratioP2;P2;SDS_P1;SDS_P2;PMS_P1;PMS_P2;Temp;Humidity;BMP_temperature;BMP_pressure;BME280_temperature;BME280_humidity;BME280_pressure;Samples;Min_cycle;Max_cycle;Signal;HPM_P1;HPM_P2
2024/04/14 00:00:45;;;;;;;6.35;2.63;;;15.60;99.90;;;-144.05;53.55;56925.28;5378527;26;20512;-81
2024/04/14 00:03:13;;;;;;;7.15;2.35;;;19.20;99.90;;;-144.05;52.85;56931.66;5380020;26;19999;-78
2024/04/14 00:05:39;;;;;;;7.15;2.63;;;18.80;99.90;;;-144.05;52.65;56938.03;5379827;26;20011;-81
2024/04/14 00:08:06;;;;;;;3.70;2.25;;;;;;;-144.05;52.17;56957.16;5343601;26;20013;-82
2024/04/14 00:10:32;;;;;;;8.68;2.30;;;18.80;99.90;;;-144.05;50.97;56935.91;5368819;26;20464;-80
2024/04/14 00:12:58;;;;;;;4.38;2.00;;;;;;;-144.05;50.94;56912.56;5377744;26;20003;-80
2024/04/14 00:15:25;;;;;;;5.70;1.98;;;15.40;99.90;;;-144.05;51.29;56916.81;5338392;26;19997;-82
2024/04/14 00:17:51;;;;;;;4.75;1.70;;;;;;;-144.05;50.77;56942.28;5373647;26;20012;-82
2024/04/14 00:20:17;;;;;;;4.45;1.60;;;14.10;99.90;;;-144.05;50.61;56935.91;5364347;26;20020;-81
2024/04/14 00:22:43;;;;;;;3.20;1.65;;;13.70;99.90;;;-144.05;50.31;56946.53;5374986;26;19996;-82
2024/04/14 00:25:09;;;;;;;5.28;1.80;;;14.10;99.90;;;-144.05;49.78;56946.53;5350623;26;20011;-80
2024/04/14 00:27:36;;;;;;;3.60;1.70;;;17.60;99.90;;;-144.05;48.56;56942.28;5348441;26;20067;-79
2024/04/14 00:30:03;;;;;;;2.88;1.27;;;17.90;99.90;;;-144.05;45.40;56938.03;5353703;26;20012;-80
2024/04/14 00:32:29;;;;;;;3.28;1.48;;;18.00;99.90;;;-144.05;43.86;56944.41;5378333;26;20001;-81
2024/04/14 00:34:55;;;;;;;2.05;1.20;;;;;;;-144.05;43.15;56918.94;5384016;26;20025;-81
2024/04/14 00:37:21;;;;;;;4.97;1.50;;;17.20;99.90;;;-144.05;43.60;56912.56;5369652;26;20011;-80
2024/04/14 00:39:47;;;;;;;3.67;1.20;;;18.00;99.90;;;-144.05;41.95;56935.91;5369954;26;20001;-81
2024/04/14 00:42:12;;;;;;;4.53;1.02;;;17.80;99.90;;;-144.05;41.55;56938.03;5377561;26;20011;-81
2024/04/14 00:44:38;;;;;;;3.10;1.40;;;17.40;99.90;;;-144.05;41.52;56929.53;5361566;26;20468;-81
2024/04/14 00:47:06;;;;;;;7.60;1.55;;;17.90;99.90;;;-144.05;41.24;56921.06;5360763;26;20405;-79
2024/04/14 00:49:33;;;;;;;1.60;1.13;;;;;;;-144.05;41.24;56914.69;5347040;26;20462;-79
2024/04/14 00:52:04;;;;;;;2.22;0.88;;;16.50;99.90;;;-144.05;41.10;56910.44;5369115;26;20071;-81
2024/04/14 00:54:34;;;;;;;2.90;1.20;;;17.50;99.90;;;-144.05;40.92;56929.53;5379154;26;20004;-81
2024/04/14 00:57:03;;;;;;;3.83;1.35;;;17.40;99.90;;;-144.05;41.43;56910.44;5374135;26;20000;-81
2024/04/14 00:59:31;;;;;;;5.15;1.20;;;13.50;99.90;;;-144.05;41.48;56925.28;5342360;26;20005;-82
2024/04/14 01:01:57;;;;;;;3.30;1.08;;;17.30;99.90;;;-144.05;41.63;56938.03;5373698;26;19996;-81
2024/04/14 01:04:23;;;;;;;3.22;1.20;;;17.20;99.90;;;-144.05;42.46;56914.69;5351964;26;20011;-79
2024/04/14 01:06:50;;;;;;;2.15;0.90;;;;;;;-144.05;42.24;56910.44;5382867;26;20007;-80
2024/04/14 01:09:16;;;;;;;2.00;1.38;;;12.90;99.90;;;-144.05;42.08;56950.78;5383450;26;20061;-80
2024/04/14 01:11:43;;;;;;;4.63;1.17;;;15.90;99.90;;;-144.05;41.88;56940.16;5403370;26;20011;-79
2024/04/14 01:14:09;;;;;;;3.40;1.40;;;11.90;99.90;;;-144.05;42.19;56916.81;5407865;26;20004;-80
2024/04/14 01:16:36;;;;;;;3.22;1.23;;;17.10;99.90;;;-144.05;42.39;56916.81;5382380;26;20074;-80
2024/04/14 01:19:06;;;;;;;2.50;1.10;;;12.70;99.90;;;-144.05;42.85;56946.53;5383567;26;20367;-78
2024/04/14 01:21:35;;;;;;;3.38;1.23;;;13.30;99.90;;;-144.05;43.20;56929.53;5363842;26;20000;-80
2024/04/14 01:24:01;;;;;;;6.10;1.58;;;13.30;99.90;;;-144.05;43.44;56921.06;5345325;26;19997;-81
2024/04/14 01:26:27;;;;;;;2.55;1.42;;;16.40;99.90;;;-144.05;43.65;56952.91;5367418;26;20471;-80
2024/04/14 01:28:53;;;;;;;2.85;0.98;;;16.40;99.90;;;-144.05;44.00;56925.28;5380846;26;19996;-81
2024/04/14 01:31:19;;;;;;;4.95;1.40;;;16.30;99.90;;;-144.05;44.51;56931.66;5365568;26;20008;-79
2024/04/14 01:33:46;;;;;;;4.97;1.33;;;;;;;-144.05;44.51;56938.03;5370909;26;20449;-80
2024/04/14 01:36:11;;;;;;;5.57;1.80;;;15.50;99.90;;;-144.05;44.61;56901.94;5381240;26;20124;-81
2024/04/14 01:38:38;;;;;;;3.70;1.10;;;;;;;-144.05;44.35;56940.16;5382186;26;20460;-80
2024/04/14 01:41:04;;;;;;;3.80;1.55;;;15.70;99.90;;;-144.05;44.46;56929.53;5377183;26;20011;-81
2024/04/14 01:43:30;;;;;;;4.55;1.33;;;;;;;-144.05;44.82;56914.69;5358229;26;20458;-79
2024/04/14 01:45:56;;;;;;;4.30;1.67;;;16.30;99.90;;;-144.05;45.17;56927.41;5366134;26;20037;-79
2024/04/14 01:48:22;;;;;;;4.82;1.60;;;15.50;99.90;;;-144.05;45.19;56914.69;5366501;26;19997;-81
2024/04/14 01:50:51;;;;;;;6.10;1.88;;;15.70;99.90;;;-144.05;45.61;56921.06;5378189;26;20041;-80
2024/04/14 01:53:17;;;;;;;2.90;1.40;;;;;;;-144.05;46.19;56925.28;5380337;26;19996;-79
2024/04/14 01:55:47;;;;;;;2.20;1.20;;;15.50;99.90;;;-144.05;46.13;56927.41;5375022;26;20015;-80
2024/04/14 01:58:13;;;;;;;5.95;1.52;;;;;;;-144.05;46.72;56921.06;5377779;26;20363;-81
2024/04/14 02:00:39;;;;;;;3.33;1.38;;;11.40;99.90;;;-144.05;46.81;56929.53;5388178;26;20015;-81
2024/04/14 02:03:05;;;;;;;3.92;1.60;;;;;;;-144.05;47.05;56923.19;5380147;26;20004;-82
2024/04/14 02:05:32;;;;;;;6.55;1.92;;;;;;;-144.05;47.42;56931.66;5379952;26;20082;-79
2024/04/14 02:07:58;;;;;;;4.97;1.65;;;;;;;-144.05;47.73;56925.28;5367653;26;20114;-81
2024/04/14 02:10:24;;;;;;;3.50;1.73;;;15.30;99.90;;;-144.05;47.90;56918.94;5379285;26;20015;-79
2024/04/14 02:12:49;;;;;;;6.72;1.80;;;15.60;99.90;;;-144.05;47.90;56916.81;5382434;26;20000;-81
2024/04/14 02:15:15;;;;;;;5.28;1.70;;;11.00;99.90;;;-144.05;48.84;56904.06;5379898;26;20461;-82
2024/04/14 02:17:41;;;;;;;7.07;1.65;;;;;;;-144.05;49.12;56927.41;5346494;26;20045;-81
2024/04/14 02:20:11;;;;;;;4.07;1.50;;;15.10;99.90;;;-144.05;49.46;56946.53;5386991;26;20015;-79
2024/04/14 02:22:38;;;;;;;3.88;1.58;;;;;;;-144.05;49.83;56901.94;5382081;26;20001;-82
2024/04/14 02:25:04;;;;;;;4.95;2.15;;;11.00;99.90;;;-144.05;50.09;56931.66;5381421;26;20461;-81
2024/04/14 02:27:30;;;;;;;6.85;2.08;;;14.90;99.90;;;-144.05;49.50;56914.69;5344286;26;20004;-80
2024/04/14 02:29:56;;;;;;;4.72;1.77;;;10.80;99.90;;;-144.05;49.66;56874.31;5360451;26;20439;-83
2024/04/14 02:32:21;;;;;;;5.25;1.88;;;15.50;99.90;;;-144.05;49.86;56912.56;5343756;26;20066;-80
2024/04/14 02:34:47;;;;;;;4.85;1.70;;;15.30;99.90;;;-144.05;50.25;56914.69;5375054;26;20554;-82
2024/04/14 02:37:13;;;;;;;2.38;1.38;;;11.40;99.90;;;-144.05;50.36;56929.53;5336906;26;19997;-83
2024/04/14 02:39:39;;;;;;;3.88;1.42;;;15.30;99.90;;;-144.05;50.29;56921.06;5386958;26;20008;-84
2024/04/14 02:42:05;;;;;;;8.80;2.03;;;10.90;99.90;;;-144.05;50.04;56897.69;5376358;26;20008;-80
2024/04/14 02:44:31;;;;;;;9.05;2.88;;;;;;;-144.05;50.44;56891.31;5381838;26;20004;-83
2024/04/14 02:46:57;;;;;;;8.50;2.13;;;;;;;-144.05;50.32;56933.78;5359867;26;20457;-80
2024/04/14 02:49:24;;;;;;;5.07;1.55;;;10.80;99.90;;;-144.05;50.57;56927.41;5381545;26;20004;-81
2024/04/14 02:51:51;;;;;;;5.32;1.65;;;;;;;-144.05;50.77;56952.91;5356461;26;20365;-81
2024/04/14 02:54:17;;;;;;;6.90;1.48;;;;;;;-144.05;50.15;56923.19;5382114;26;20019;-81
2024/04/14 02:56:43;;;;;;;4.43;1.77;;;15.50;99.90;;;-144.05;49.83;56927.41;5347757;26;19997;-83
2024/04/14 02:59:08;;;;;;;7.82;1.80;;;11.60;99.90;;;-144.05;49.86;56904.06;5350281;26;19996;-82
2024/04/14 03:01:34;;;;;;;3.85;1.63;;;10.90;99.90;;;-144.05;50.36;56921.06;5388988;26;20015;-81
2024/04/14 03:04:00;;;;;;;5.40;1.80;;;10.60;99.90;;;-144.05;50.84;56935.91;5382883;26;20015;-82
2024/04/14 03:06:26;;;;;;;4.43;1.65;;;15.40;99.90;;;-144.05;50.94;56921.06;5382243;26;20008;-83
2024/04/14 03:08:51;;;;;;;8.73;2.00;;;11.10;99.90;;;-144.05;50.71;56940.16;5378693;26;20481;-82
2024/04/14 03:11:18;;;;;;;7.78;2.05;;;;;;;-144.05;50.80;56910.44;5357601;26;19996;-83
2024/04/14 03:13:43;;;;;;;8.02;2.08;;;11.10;99.90;;;-144.05;51.08;56910.44;5386675;26;19995;-83
2024/04/14 03:16:09;;;;;;;7.13;2.42;;;10.90;99.90;;;-144.05;51.35;56895.56;5348161;26;20016;-82
2024/04/14 03:18:35;;;;;;;5.68;1.80;;;15.50;99.90;;;-144.05;51.61;56925.28;5378927;26;20054;-83
2024/04/14 03:21:03;;;;;;;5.20;2.00;;;14.30;99.90;;;-144.05;51.84;56912.56;5397953;26;20003;-81
2024/04/14 03:23:30;;;;;;;7.95;2.10;;;;;;;-144.05;52.37;56925.28;5398343;26;20081;-83
2024/04/14 03:25:56;;;;;;;5.88;2.28;;;;;;;-144.05;52.57;56895.56;5387277;26;20000;-80
2024/04/14 03:28:24;;;;;;;7.97;2.72;;;;;;;-144.05;52.86;56912.56;5370213;26;20017;-81
2024/04/14 03:30:51;;;;;;;7.40;2.28;;;10.80;99.90;;;-144.05;52.92;56912.56;5372101;26;20016;-79
2024/04/14 03:33:18;;;;;;;9.30;2.00;;;15.30;99.90;;;-144.05;53.18;56912.56;5372597;26;20008;-80
2024/04/14 03:35:45;;;;;;;8.60;2.65;;;15.20;99.90;;;-144.05;53.57;56901.94;5378740;26;20322;-80
2024/04/14 03:38:11;;;;;;;6.28;2.47;;;10.50;99.90;;;-144.05;54.19;56935.91;5372834;26;19997;-82
2024/04/14 03:40:37;;;;;;;9.93;3.00;;;;;;;-144.05;54.20;56914.69;5395489;26;20027;-80
2024/04/14 03:43:04;;;;;;;10.05;3.15;;;;;;;-144.05;54.03;56912.56;5354819;26;20073;-79
2024/04/14 03:45:29;;;;;;;9.90;2.47;;;15.20;99.90;;;-144.05;55.21;56916.81;5349620;26;20000;-80
2024/04/14 03:47:55;;;;;;;9.40;2.97;;;;;;;-144.05;55.22;56904.06;5367685;26;20011;-82
2024/04/14 03:50:21;;;;;;;6.95;2.40;;;15.00;99.90;;;-144.05;55.19;56893.44;5349957;26;20346;-80
2024/04/14 03:52:47;;;;;;;8.88;3.00;;;10.00;99.90;;;-144.05;55.24;56921.06;5355573;26;20016;-82
2024/04/14 03:55:14;;;;;;;8.73;2.92;;;11.00;99.90;;;-144.05;55.02;56904.06;5380640;26;20096;-82
2024/04/14 03:57:40;;;;;;;7.65;2.65;;;11.10;99.90;;;-144.05;55.14;56916.81;5383276;26;19995;-81
2024/04/14 04:00:07;;;;;;;7.47;2.33;;;10.90;99.90;;;-144.05;55.19;56921.06;5366729;26;20033;-81
2024/04/14 04:02:33;;;;;;;11.43;3.58;;;;;;;-144.05;55.52;56912.56;5378366;26;20407;-79
2024/04/14 04:04:59;;;;;;;7.85;2.67;;;;;;;-144.05;55.70;56912.56;5347593;26;20000;-81
2024/04/14 04:07:25;;;;;;;16.05;3.17;;;10.40;99.90;;;-144.05;55.45;56912.56;5380461;26;20011;-81
2024/04/14 04:09:51;;;;;;;7.93;2.72;;;10.20;99.90;;;-144.05;55.43;56912.56;5378515;26;20007;-80
2024/04/14 04:12:17;;;;;;;11.23;2.83;;;10.20;99.90;;;-144.05;55.69;56912.56;5348932;26;19996;-80
2024/04/14 04:14:42;;;;;;;11.93;3.20;;;10.20;99.90;;;-144.05;56.04;56912.56;5381365;26;20007;-81
2024/04/14 04:17:10;;;;;;;11.55;4.07;;;9.90;99.90;;;-144.05;55.84;56912.56;5360129;26;20011;-80
2024/04/14 04:19:35;;;;;;;10.07;3.05;;;15.00;99.90;;;-144.05;55.80;56921.06;5381904;26;20015;-79
2024/04/14 04:22:02;;;;;;;12.45;3.78;;;10.10;99.90;;;-144.05;56.21;56912.56;5385739;26;20418;-81
2024/04/14 04:24:28;;;;;;;7.30;3.08;;;15.00;99.90;;;-144.05;56.54;56918.94;5378112;26;20020;-79
2024/04/14 04:26:53;;;;;;;11.15;2.80;;;15.00;99.90;;;-144.05;56.31;56940.16;5360460;26;20075;-79
2024/04/14 04:29:19;;;;;;;10.73;3.10;;;15.20;99.90;;;-144.05;56.46;56918.94;5343013;26;20025;-79
2024/04/14 04:31:45;;;;;;;7.70;3.70;;;;;;;-144.05;56.68;56910.44;5375289;26;20059;-79
2024/04/14 04:34:12;;;;;;;9.48;3.60;;;;;;;-144.05;56.83;56927.41;5342801;26;20135;-78
2024/04/14 04:36:37;;;;;;;9.25;3.15;;;10.50;99.90;;;-144.05;56.85;56906.19;5380526;26;20468;-80
2024/04/14 04:39:04;;;;;;;9.45;3.35;;;;;;;-144.05;56.98;56910.44;5381087;26;20000;-81
2024/04/14 04:41:30;;;;;;;10.73;3.35;;;9.80;99.90;;;-144.05;57.06;56889.19;5381211;26;20004;-80
2024/04/14 04:43:57;;;;;;;11.75;3.13;;;;;;;-144.05;57.89;56931.66;5347347;26;20052;-80
2024/04/14 04:46:23;;;;;;;9.23;3.70;;;;;;;-144.05;57.67;56925.28;5379430;26;20308;-80
2024/04/14 04:48:51;;;;;;;9.32;3.50;;;9.90;99.90;;;-144.05;57.74;56908.31;5381528;26;20450;-81
2024/04/14 04:51:20;;;;;;;9.65;3.65;;;;;;;-144.05;57.65;56906.19;5349971;26;20008;-80
2024/04/14 04:53:46;;;;;;;9.80;3.45;;;9.90;99.90;;;-144.05;57.91;56916.81;5344419;26;20008;-80
2024/04/14 04:56:12;;;;;;;12.25;3.17;;;10.20;99.90;;;-144.05;57.73;56908.31;5362944;26;20005;-81
2024/04/14 04:58:38;;;;;;;13.05;3.08;;;10.80;99.90;;;-144.05;57.89;56912.56;5376982;26;20000;-79
2024/04/14 05:01:04;;;;;;;13.63;4.30;;;11.00;99.90;;;-144.05;57.97;56897.69;5370827;26;19996;-79
2024/04/14 05:03:30;;;;;;;12.15;4.10;;;9.80;99.90;;;-144.05;58.39;56889.19;5398344;26;20014;-82
2024/04/14 05:06:02;;;;;;;14.45;4.03;;;15.30;99.90;;;-144.05;58.39;56908.31;5387507;26;20448;-80
2024/04/14 05:08:28;;;;;;;10.45;3.47;;;15.20;99.90;;;-144.05;58.77;56910.44;5350954;26;20022;-79
2024/04/14 05:10:56;;;;;;;13.70;3.78;;;;;;;-144.05;59.04;56912.56;5380815;26;20012;-81
2024/04/14 05:13:27;;;;;;;13.07;4.80;;;15.20;99.90;;;-144.05;59.01;56916.81;5374317;26;20013;-78
2024/04/14 05:15:53;;;;;;;15.20;4.68;;;15.00;99.90;;;-144.05;59.38;56899.81;5346962;26;20011;-80
2024/04/14 05:18:21;;;;;;;13.82;3.95;;;14.90;99.90;;;-144.05;59.43;56929.53;5372073;26;20012;-79
2024/04/14 05:20:47;;;;;;;9.45;3.80;;;;;;;-144.05;59.30;56906.19;5382989;26;20004;-79
2024/04/14 05:23:13;;;;;;;9.38;3.67;;;14.60;99.90;;;-144.05;60.13;56914.69;5357976;26;20007;-80
2024/04/14 05:25:40;;;;;;;10.27;4.30;;;10.00;99.90;;;-144.05;59.92;56929.53;5368932;26;20013;-79
2024/04/14 05:28:07;;;;;;;13.45;4.22;;;15.20;99.90;;;-144.05;59.91;56874.31;5360370;26;20003;-81
2024/04/14 05:30:35;;;;;;;12.38;4.18;;;15.10;99.90;;;-144.05;59.53;56908.31;5378686;26;19997;-81
2024/04/14 05:33:01;;;;;;;10.20;4.75;;;10.10;99.90;;;-144.05;59.95;56923.19;5372750;26;20081;-81
2024/04/14 05:35:27;;;;;;;12.07;4.13;;;;;;;-144.05;59.75;56918.94;5383989;26;20012;-79
2024/04/14 05:37:53;;;;;;;9.95;3.22;;;10.50;99.90;;;-144.05;59.77;56918.94;5389353;26;19996;-80
2024/04/14 05:40:19;;;;;;;10.02;4.32;;;15.00;99.90;;;-144.05;59.77;56912.56;5388651;26;20011;-80
2024/04/14 05:42:44;;;;;;;11.70;3.42;;;10.30;99.90;;;-144.05;60.16;56916.81;5384821;26;20335;-80
2024/04/14 05:45:10;;;;;;;11.23;3.85;;;9.80;99.90;;;-144.05;59.62;56895.56;5348434;26;20404;-78
2024/04/14 05:47:36;;;;;;;13.57;3.75;;;11.10;99.90;;;-144.05;59.55;56914.69;5388208;26;20031;-80
2024/04/14 05:50:03;;;;;;;13.40;3.92;;;;;;;-144.05;59.08;56912.56;5390820;26;20077;-80
2024/04/14 05:52:29;;;;;;;10.40;3.58;;;10.70;99.90;;;-144.05;59.48;56901.94;5350910;26;20005;-80
2024/04/14 05:54:55;;;;;;;9.05;3.13;;;11.20;99.90;;;-144.05;59.19;56916.81;5348753;26;19997;-80
2024/04/14 05:57:21;;;;;;;11.82;4.13;;;15.40;99.90;;;-144.05;59.23;56940.16;5373145;26;20016;-80
2024/04/14 05:59:47;;;;;;;11.57;3.40;;;;;;;-144.05;58.65;56916.81;5372940;26;20010;-81
2024/04/14 06:02:15;;;;;;;16.30;4.63;;;11.60;99.90;;;-144.05;59.05;56910.44;5384893;26;20015;-78
2024/04/14 06:04:41;;;;;;;13.45;3.58;;;10.70;99.90;;;-144.05;58.82;56910.44;5345664;26;20005;-78
2024/04/14 06:07:07;;;;;;;14.75;3.78;;;;;;;-144.05;58.89;56897.69;5381208;26;20001;-80
2024/04/14 06:09:32;;;;;;;17.38;3.83;;;15.00;99.90;;;-144.05;58.85;56914.69;5347916;26;20015;-79
2024/04/14 06:11:58;;;;;;;11.02;3.40;;;14.40;99.90;;;-144.05;58.86;56908.31;5399407;26;20000;-79
2024/04/14 06:14:24;;;;;;;12.52;3.92;;;14.10;99.90;;;-144.05;58.81;56931.66;5367240;26;20111;-81
2024/04/14 06:16:50;;;;;;;18.60;4.03;;;;;;;-144.05;58.56;56887.06;5350852;26;20041;-80
2024/04/14 06:19:17;;;;;;;16.92;3.67;;;10.20;99.90;;;-144.05;58.73;56925.28;5377977;26;20001;-79
2024/04/14 06:21:43;;;;;;;11.65;3.78;;;14.90;99.90;;;-144.05;58.88;56904.06;5380243;26;20000;-80
2024/04/14 06:24:10;;;;;;;11.57;3.13;;;;;;;-144.05;58.42;56918.94;5379741;26;20008;-80
2024/04/14 06:26:37;;;;;;;16.27;3.45;;;14.90;99.90;;;-144.05;58.45;56921.06;5378670;26;20015;-80
2024/04/14 06:29:03;;;;;;;8.50;3.67;;;15.10;99.90;;;-144.05;58.67;56908.31;5406316;26;20006;-79
2024/04/14 06:31:28;;;;;;;9.45;3.72;;;10.70;99.90;;;-144.05;57.66;56912.56;5352163;26;19997;-77
2024/04/14 06:33:55;;;;;;;8.18;3.08;;;;;;;-144.05;57.17;56918.94;5368083;26;20000;-76
2024/04/14 06:36:20;;;;;;;15.32;3.88;;;14.70;99.90;;;-144.05;57.26;56906.19;5382569;26;20449;-76
2024/04/14 06:38:46;;;;;;;15.20;3.58;;;10.80;99.90;;;-144.05;56.98;56906.19;5381244;26;20029;-77
2024/04/14 06:41:13;;;;;;;11.05;3.00;;;15.30;99.90;;;-144.05;56.47;56916.81;5391819;26;19999;-79
2024/04/14 06:43:39;;;;;;;8.32;3.35;;;15.10;99.90;;;-144.05;57.20;56882.81;5374107;26;20353;-79
2024/04/14 06:46:05;;;;;;;9.05;3.40;;;11.50;99.90;;;-144.05;56.88;56916.81;5387164;26;20377;-80
2024/04/14 06:48:32;;;;;;;11.02;3.55;;;;;;;-144.05;56.88;56923.19;5356840;26;20051;-80
2024/04/14 06:50:58;;;;;;;7.75;3.10;;;10.90;99.90;;;-144.05;56.95;56880.69;5373677;26;20085;-79
2024/04/14 06:53:24;;;;;;;8.65;3.00;;;15.50;99.90;;;-144.05;56.96;56925.28;5350333;26;20000;-79
2024/04/14 06:55:50;;;;;;;12.93;3.78;;;10.70;99.90;;;-144.05;56.86;56910.44;5350454;26;20001;-81
2024/04/14 06:58:18;;;;;;;10.20;2.80;;;;;;;-144.05;55.62;56923.19;5347218;26;20021;-79
2024/04/14 07:00:43;;;;;;;8.30;2.60;;;10.60;99.90;;;-144.05;54.75;56938.03;5381206;26;20004;-79
2024/04/14 07:03:11;;;;;;;8.55;2.70;;;11.50;99.90;;;-144.05;53.76;56916.81;5380547;26;20000;-79
2024/04/14 07:05:37;;;;;;;6.75;2.95;;;16.10;99.90;;;-144.05;53.43;56901.94;5352009;26;20009;-79
2024/04/14 07:08:04;;;;;;;9.52;2.10;;;11.60;99.90;;;-144.05;51.80;56908.31;5379910;26;20016;-81
2024/04/14 07:10:30;;;;;;;11.77;2.70;;;15.60;99.90;;;-144.05;51.56;56921.06;5347956;26;20079;-80
2024/04/14 07:12:56;;;;;;;9.60;3.15;;;;;;;-144.05;51.38;56910.44;5348287;26;19996;-79
2024/04/14 07:15:22;;;;;;;7.78;2.30;;;;;;;-144.05;51.11;56897.69;5319214;26;19997;-80
2024/04/14 07:17:48;;;;;;;13.70;2.85;;;14.80;99.90;;;-144.05;50.84;56904.06;5382439;26;20592;-78
2024/04/14 07:20:15;;;;;;;11.77;2.95;;;;;;;-144.05;51.15;56921.06;5368817;26;20017;-79
2024/04/14 07:22:41;;;;;;;12.23;2.83;;;;;;;-144.05;50.84;56906.19;5387519;26;19996;-79
2024/04/14 07:25:07;;;;;;;9.05;3.20;;;;;;;-144.05;50.85;56906.19;5378764;26;20077;-80
2024/04/14 07:27:33;;;;;;;9.38;3.42;;;15.90;99.90;;;-144.05;50.62;56910.44;5384062;26;20007;-82
2024/04/14 07:29:59;;;;;;;9.20;2.70;;;15.70;99.90;;;-144.05;50.25;56901.94;5384868;26;20000;-81
2024/04/14 07:32:24;;;;;;;13.85;2.80;;;16.50;99.90;;;-144.05;50.31;56912.56;5393160;26;19999;-76
2024/04/14 07:34:50;;;;;;;9.65;2.70;;;16.40;99.90;;;-144.05;49.72;56887.06;5399317;26;20008;-80
2024/04/14 07:37:16;;;;;;;7.10;2.90;;;16.60;99.90;;;-144.05;48.81;56908.31;5361755;26;20012;-80
2024/04/14 07:39:42;;;;;;;10.52;3.10;;;15.80;99.90;;;-144.05;48.47;56916.81;5357752;26;20004;-79
2024/04/14 07:42:10;;;;;;;5.85;2.40;;;16.20;99.90;;;-144.05;46.92;56891.31;5319955;26;20428;-78
2024/04/14 07:44:36;;;;;;;8.85;2.60;;;13.30;99.90;;;-144.05;46.84;56908.31;5390328;26;20009;-79
2024/04/14 07:47:01;;;;;;;10.10;3.33;;;17.00;99.90;;;-144.05;46.64;56912.56;5375079;26;20463;-79
2024/04/14 07:49:28;;;;;;;11.07;3.00;;;;;;;-144.05;47.34;56912.56;5364038;26;20085;-79
2024/04/14 07:51:53;;;;;;;9.63;2.70;;;15.60;99.90;;;-144.05;48.06;56916.81;5368206;26;20029;-81
2024/04/14 07:54:19;;;;;;;9.02;3.13;;;16.20;99.90;;;-144.05;48.77;56904.06;5343136;26;19996;-79
2024/04/14 07:56:45;;;;;;;7.15;2.88;;;16.40;99.90;;;-144.05;49.19;56901.94;5383963;26;20001;-80
2024/04/14 07:59:11;;;;;;;11.32;3.67;;;15.90;99.90;;;-144.05;49.35;56925.28;5353008;26;20353;-81
2024/04/14 08:01:37;;;;;;;7.05;3.55;;;12.50;99.90;;;-144.05;48.74;56910.44;5359573;26;20007;-80
2024/04/14 08:04:03;;;;;;;9.15;3.65;;;12.80;99.90;;;-144.05;49.17;56940.16;5382752;26;20548;-83
2024/04/14 08:06:29;;;;;;;8.32;3.58;;;13.30;99.90;;;-144.05;48.78;56901.94;5385474;26;20012;-80
2024/04/14 08:08:55;;;;;;;10.38;3.30;;;11.70;99.90;;;-144.05;48.78;56916.81;5404795;26;20008;-81
2024/04/14 08:11:21;;;;;;;8.23;3.13;;;17.50;99.90;;;-144.05;46.53;56908.31;5363142;26;19997;-80
2024/04/14 08:13:47;;;;;;;8.32;3.47;;;16.60;99.90;;;-144.05;47.29;56925.28;5365675;26;20441;-83
2024/04/14 08:16:13;;;;;;;7.88;2.58;;;;;;;-144.05;46.88;56927.41;5370349;26;19996;-79
2024/04/14 08:18:39;;;;;;;9.95;2.63;;;12.10;99.90;;;-144.05;47.38;56916.81;5383546;26;19999;-81
2024/04/14 08:21:05;;;;;;;9.48;2.90;;;16.40;99.90;;;-144.05;47.72;56906.19;5371733;26;20019;-81
2024/04/14 08:23:31;;;;;;;8.25;3.30;;;;;;;-144.05;48.48;56904.06;5341253;26;20001;-80
2024/04/14 08:26:00;;;;;;;9.10;2.60;;;15.90;99.90;;;-144.05;47.15;56921.06;5380377;26;19996;-81
2024/04/14 08:28:26;;;;;;;8.25;3.42;;;12.90;99.90;;;-144.05;45.73;56908.31;5383590;26;20051;-81
2024/04/14 08:30:52;;;;;;;7.88;3.00;;;16.90;99.90;;;-144.05;45.11;56897.69;5385279;26;20007;-80
2024/04/14 08:33:18;;;;;;;6.18;2.40;;;12.60;99.90;;;-144.05;45.71;56912.56;5360396;26;20037;-79
2024/04/14 08:35:44;;;;;;;5.25;2.13;;;;;;;-144.05;45.13;56921.06;5380200;26;20011;-81
2024/04/14 08:38:10;;;;;;;7.57;2.67;;;16.60;99.90;;;-144.05;44.97;56925.28;5385812;26;20074;-81
2024/04/14 08:40:36;;;;;;;6.57;2.30;;;;;;;-144.05;44.44;56908.31;5350869;26;20001;-81
2024/04/14 08:43:03;;;;;;;6.50;2.83;;;;;;;-144.05;44.47;56916.81;5373842;26;20078;-83
2024/04/14 08:45:32;;;;;;;6.32;2.60;;;16.20;99.90;;;-144.05;43.82;56901.94;5366309;26;20425;-78
2024/04/14 08:48:02;;;;;;;6.60;2.75;;;17.10;99.90;;;-144.05;43.38;56910.44;5377194;26;20563;-79
2024/04/14 08:50:30;;;;;;;9.65;2.60;;;17.20;99.90;;;-144.05;42.17;56895.56;5382962;26;20015;-82
2024/04/14 08:52:56;;;;;;;6.65;2.30;;;17.60;99.90;;;-144.05;42.25;56925.28;5359143;26;20115;-82
2024/04/14 08:55:22;;;;;;;11.52;2.40;;;;;;;-144.05;42.63;56929.53;5359724;26;20404;-81
2024/04/14 08:57:49;;;;;;;6.32;2.40;;;18.00;99.90;;;-144.05;41.65;56910.44;5382530;26;20036;-79
2024/04/14 09:00:19;;;;;;;10.25;3.03;;;16.50;99.90;;;-144.05;41.14;56914.69;5386220;26;20001;-79
2024/04/14 09:02:46;;;;;;;10.13;2.80;;;16.40;99.90;;;-144.05;41.31;56925.28;5383681;26;20012;-79
2024/04/14 09:05:15;;;;;;;5.30;2.20;;;17.70;99.90;;;-144.05;41.67;56929.53;5382942;26;20004;-80
2024/04/14 09:07:44;;;;;;;9.40;1.85;;;18.00;99.90;;;-144.05;39.25;56925.28;5350922;26;20011;-78
2024/04/14 09:10:10;;;;;;;9.57;2.15;;;18.20;99.90;;;-144.05;38.79;56955.03;5363080;26;20075;-80
2024/04/14 09:12:36;;;;;;;7.93;1.75;;;;;;;-144.05;39.90;56927.41;5364288;26;20040;-80
2024/04/14 09:15:05;;;;;;;7.50;2.40;;;16.80;99.90;;;-144.05;39.67;56901.94;5363169;26;20000;-81
2024/04/14 09:17:32;;;;;;;5.95;1.60;;;17.20;99.90;;;-144.05;39.87;56929.53;5373194;26;20013;-79
2024/04/14 09:19:58;;;;;;;6.55;2.30;;;18.00;99.90;;;-144.05;39.32;56933.78;5371981;26;20016;-79
2024/04/14 09:22:24;;;;;;;5.20;1.73;;;17.60;99.90;;;-144.05;39.72;56914.69;5400473;26;20026;-80
2024/04/14 09:24:53;;;;;;;10.02;1.83;;;13.20;99.90;;;-144.05;41.15;56904.06;5399931;26;20010;-82
2024/04/14 09:27:19;;;;;;;6.68;1.95;;;17.50;99.90;;;-144.05;40.68;56942.28;5370099;26;20016;-82
2024/04/14 09:29:45;;;;;;;8.05;2.20;;;18.60;99.90;;;-144.05;39.58;56910.44;5377766;26;20077;-78
2024/04/14 09:32:11;;;;;;;3.97;2.20;;;17.30;99.90;;;-144.05;39.08;56910.44;5387295;26;20027;-82
2024/04/14 09:34:38;;;;;;;6.80;2.08;;;;;;;-144.05;39.05;56893.44;5375163;26;20001;-81
2024/04/14 09:37:12;;;;;;;9.43;1.75;;;17.10;99.90;;;-144.05;40.62;56946.53;5377236;26;20062;-83
2024/04/14 09:39:40;;;;;;;7.25;1.98;;;13.20;99.90;;;-144.05;41.08;56906.19;5383522;26;20023;-83
2024/04/14 09:42:07;;;;;;;5.50;1.92;;;17.50;99.90;;;-144.05;40.73;56912.56;5385857;26;19996;-82
2024/04/14 09:44:36;;;;;;;7.75;2.05;;;12.90;99.90;;;-144.05;39.98;56929.53;5393471;26;20003;-81
2024/04/14 09:47:04;;;;;;;4.72;1.80;;;16.30;99.90;;;-144.05;41.10;56912.56;5400648;26;20001;-80
2024/04/14 09:49:34;;;;;;;8.50;1.73;;;17.10;99.90;;;-144.05;40.09;56918.94;5394568;26;19992;-80
2024/04/14 09:52:04;;;;;;;6.38;1.85;;;17.60;99.90;;;-144.05;38.51;56906.19;5352016;26;20102;-84
2024/04/14 09:54:31;;;;;;;4.80;2.05;;;16.70;99.90;;;-144.05;38.36;56891.31;5401140;26;20448;-81
2024/04/14 09:56:57;;;;;;;5.22;1.45;;;14.10;99.90;;;-144.05;38.94;56921.06;5387583;26;20419;-82
2024/04/14 09:59:23;;;;;;;6.20;1.50;;;18.20;99.90;;;-144.05;37.21;56921.06;5353015;26;20046;-80
2024/04/14 10:01:52;;;;;;;5.70;1.98;;;19.20;99.90;;;-144.05;37.97;56923.19;5338985;26;19996;-81
2024/04/14 10:04:20;;;;;;;7.95;2.17;;;18.50;99.90;;;-144.05;36.47;56957.16;5358826;26;20009;-80
2024/04/14 10:06:47;;;;;;;6.75;3.08;;;15.90;99.90;;;-144.05;38.76;56946.53;5375941;26;20019;-80
2024/04/14 10:09:13;;;;;;;11.38;2.60;;;16.80;99.90;;;-144.05;36.05;56929.53;5385719;26;20010;-81
2024/04/14 10:11:42;;;;;;;9.25;2.78;;;15.70;99.90;;;-144.05;36.89;56942.28;5385478;26;20000;-81
2024/04/14 10:14:14;;;;;;;10.88;2.78;;;14.30;99.90;;;-144.05;37.89;56925.28;5363489;26;19996;-80
2024/04/14 10:16:54;;;;;;;7.90;2.97;;;15.10;99.90;;;-144.05;39.65;56923.19;5387296;26;20074;-78